Rainbow — WDC3878 — position and weather

sailwx.info

Track history (hours):
 
Tides and Currents Weather Stations Pressure Air Temp Water Temp Dewpoint Dewpoint Depression Visibility Wind Speed Wind Dir Waves Ship Positions

Rainbow

Owner: Providence Steamboat Co., PROVIDENCE, RI. More information available from US FCC via Universal Licensing System and Coast Guard Vessel Documentation Center.

Last reported at 2017-Dec-11 01:31 UTC. Time now 2017-Dec-11 07:50 UTC.
Position N 41°35' W 071°24'.

Length 28 m; draft 4 m.

Type: Tug. MMSI: 367015670.

Date/timePositionNaut miles runAvg speedWind from/ knotsBaromVisibWave heightAir tempDewpointWater temp
2017-Dec-11 01:31N 41°35' W 071°24'1 9.7
2017-Dec-11 01:25N 41°35' W 071°23'3 0.3
2017-Dec-10 13:57N 41°31' W 071°24'4 0.2
2017-Dec-09 19:00N 41°35' W 071°24'1 1.7
2017-Dec-09 18:25N 41°35' W 071°23'7 7.3
2017-Dec-09 17:29N 41°41' W 071°19'5 9.7
2017-Dec-09 17:00N 41°45' W 071°22'1 0.1
2017-Dec-09 03:01N 41°46' W 071°23'011.6
2017-Dec-09 02:58N 41°46' W 071°23'510.2
2017-Dec-09 02:30N 41°42' W 071°19'0 0.0
2017-Dec-07 21:30N 41°41' W 071°19'5 9.8
2017-Dec-07 21:00N 41°45' W 071°22'3 0.3
2017-Dec-07 11:47N 41°48' W 071°24'3 0.2
2017-Dec-06 23:15N 41°46' W 071°23'3 9.5
2017-Dec-06 22:59N 41°43' W 071°21'8 5.5
2017-Dec-06 21:33N 41°36' W 071°24'0 9.0
2017-Dec-06 21:30N 41°36' W 071°24'1 1.0
2017-Dec-06 20:52N 41°37' W 071°24'  
2017-Dec-04 10:27N 41°37' W 071°24'0 0.0
2017-Dec-04 10:00N 41°37' W 071°24'0 0.0
2017-Dec-04 09:30N 41°37' W 071°24'0 0.0
2017-Dec-04 09:00N 41°37' W 071°24'0 0.0
2017-Dec-04 08:30N 41°37' W 071°24'0 0.0
2017-Dec-04 08:00N 41°37' W 071°24'0 0.0
2017-Dec-04 07:30N 41°37' W 071°24'2 4.2
2017-Dec-04 06:59N 41°35' W 071°23'7 0.5
2017-Dec-03 16:47N 41°41' W 071°19'3 9.4
2017-Dec-03 16:29N 41°43' W 071°21'5 0.6
2017-Dec-03 08:07N 41°48' W 071°24'0 0.0
2017-Dec-02 10:13N 41°48' W 071°24'3 0.5
2017-Dec-02 04:29N 41°46' W 071°23'4 8.9
2017-Dec-02 04:00N 41°42' W 071°19'7 4.7
2017-Dec-02 02:36N 41°36' W 071°24'1 5.4
2017-Dec-02 02:30N 41°37' W 071°24'0 0.0
2017-Dec-01 15:52N 41°36' W 071°24'0 0.9
2017-Dec-01 15:30N 41°36' W 071°24'1 1.6
2017-Dec-01 14:58N 41°37' W 071°24'0 0.0
2017-Dec-01 11:54N 41°37' W 071°24'1 1.4
2017-Dec-01 11:30N 41°36' W 071°24'  
Track history (hours):
 
Tides and Currents Weather Stations Pressure Air Temp Water Temp Dewpoint Dewpoint Depression Visibility Wind Speed Wind Dir Waves Ship Positions

Rainbow

Owner: Providence Steamboat Co., PROVIDENCE, RI. More information available from US FCC via Universal Licensing System and Coast Guard Vessel Documentation Center.

Last reported at 2017-Dec-11 01:31 UTC. Time now 2017-Dec-11 07:50 UTC.
Position N 41°35' W 071°24'.

Length 28 m; draft 4 m.

Type: Tug. MMSI: 367015670.

Date/timePositionNaut miles runAvg speedWind from/ knotsBaromVisibWave heightAir tempDewpointWater temp
2017-Dec-11 01:31N 41°35' W 071°24'1 9.7
2017-Dec-11 01:25N 41°35' W 071°23'3 0.3
2017-Dec-10 13:57N 41°31' W 071°24'4 0.2
2017-Dec-09 19:00N 41°35' W 071°24'1 1.7
2017-Dec-09 18:25N 41°35' W 071°23'7 7.3
2017-Dec-09 17:29N 41°41' W 071°19'5 9.7
2017-Dec-09 17:00N 41°45' W 071°22'1 0.1
2017-Dec-09 03:01N 41°46' W 071°23'011.6
2017-Dec-09 02:58N 41°46' W 071°23'510.2
2017-Dec-09 02:30N 41°42' W 071°19'0 0.0
2017-Dec-07 21:30N 41°41' W 071°19'5 9.8
2017-Dec-07 21:00N 41°45' W 071°22'3 0.3
2017-Dec-07 11:47N 41°48' W 071°24'3 0.2
2017-Dec-06 23:15N 41°46' W 071°23'3 9.5
2017-Dec-06 22:59N 41°43' W 071°21'8 5.5
2017-Dec-06 21:33N 41°36' W 071°24'0 9.0
2017-Dec-06 21:30N 41°36' W 071°24'1 1.0
2017-Dec-06 20:52N 41°37' W 071°24'  
2017-Dec-04 10:27N 41°37' W 071°24'0 0.0
2017-Dec-04 10:00N 41°37' W 071°24'0 0.0
2017-Dec-04 09:30N 41°37' W 071°24'0 0.0
2017-Dec-04 09:00N 41°37' W 071°24'0 0.0
2017-Dec-04 08:30N 41°37' W 071°24'0 0.0
2017-Dec-04 08:00N 41°37' W 071°24'0 0.0
2017-Dec-04 07:30N 41°37' W 071°24'2 4.2
2017-Dec-04 06:59N 41°35' W 071°23'7 0.5
2017-Dec-03 16:47N 41°41' W 071°19'3 9.4
2017-Dec-03 16:29N 41°43' W 071°21'5 0.6
2017-Dec-03 08:07N 41°48' W 071°24'0 0.0
2017-Dec-02 10:13N 41°48' W 071°24'3 0.5
2017-Dec-02 04:29N 41°46' W 071°23'4 8.9
2017-Dec-02 04:00N 41°42' W 071°19'7 4.7
2017-Dec-02 02:36N 41°36' W 071°24'1 5.4
2017-Dec-02 02:30N 41°37' W 071°24'0 0.0
2017-Dec-01 15:52N 41°36' W 071°24'0 0.9
2017-Dec-01 15:30N 41°36' W 071°24'1 1.6
2017-Dec-01 14:58N 41°37' W 071°24'0 0.0
2017-Dec-01 11:54N 41°37' W 071°24'1 1.4
2017-Dec-01 11:30N 41°36' W 071°24'  

Dump ship's entire track history